createdAt,value
2022-12-08T00:02:02.661Z,30.50
2022-12-08T00:05:28.558Z,21.73
2022-12-08T00:08:52.970Z,30.77
2022-12-08T00:12:01.690Z,21.93
2022-12-08T00:15:09.796Z,21.03
2022-12-08T00:18:16.248Z,23.70
2022-12-08T00:21:22.536Z,24.87
2022-12-08T00:24:34.915Z,34.77
2022-12-08T00:27:40.915Z,23.27
2022-12-08T00:30:48.554Z,24.83
2022-12-08T00:33:54.700Z,19.30
2022-12-08T00:37:00.738Z,25.47
2022-12-08T00:40:08.342Z,24.23
2022-12-08T00:43:14.982Z,20.07
2022-12-08T00:46:22.485Z,17.13
2022-12-08T00:49:28.648Z,24.87
2022-12-08T00:52:35.233Z,19.53
2022-12-08T00:55:41.478Z,34.13
2022-12-08T00:58:47.641Z,29.73
2022-12-08T01:01:55.428Z,22.43
2022-12-08T01:05:01.530Z,13.67
2022-12-08T01:08:08.184Z,16.10
2022-12-08T01:11:17.462Z,16.57
2022-12-08T01:14:23.812Z,20.17
2022-12-08T01:17:31.341Z,21.40
2022-12-08T01:20:37.339Z,20.07
2022-12-08T01:23:44.208Z,26.23
2022-12-08T01:26:52.047Z,22.40
2022-12-08T01:29:58.222Z,22.87
2022-12-08T01:33:06.176Z,23.10
2022-12-08T01:36:21.253Z,17.27
2022-12-08T01:39:27.637Z,27.13
2022-12-08T01:42:34.677Z,22.53
2022-12-08T01:45:42.216Z,21.23
2022-12-08T01:48:52.241Z,26.33
2022-12-08T01:52:04.268Z,18.10
2022-12-08T01:55:16.798Z,24.63
2022-12-08T01:58:27.970Z,25.50
2022-12-08T02:01:34.910Z,22.93
2022-12-08T02:04:42.452Z,26.20
2022-12-08T02:07:49.793Z,23.03
2022-12-08T02:10:56.097Z,22.27
2022-12-08T02:14:07.199Z,24.90
2022-12-08T02:17:23.664Z,24.60
2022-12-08T02:20:46.540Z,26.77
2022-12-08T02:24:00.682Z,29.63
2022-12-08T02:27:34.088Z,38.83
2022-12-08T02:30:52.126Z,23.90
2022-12-08T02:34:28.930Z,28.80
2022-12-08T02:37:40.546Z,19.00
2022-12-08T02:40:54.691Z,25.40
2022-12-08T02:44:07.537Z,19.20
2022-12-08T02:47:17.052Z,28.67
2022-12-08T02:50:24.491Z,16.87
2022-12-08T02:53:33.521Z,22.50
2022-12-08T02:57:13.669Z,25.70
2022-12-08T03:00:22.884Z,31.40
2022-12-08T03:03:36.932Z,28.60
2022-12-08T03:06:50.119Z,28.83
2022-12-08T03:10:00.079Z,27.43
2022-12-08T03:13:11.014Z,23.30
2022-12-08T03:16:23.995Z,19.47
2022-12-08T03:19:34.069Z,36.77
2022-12-08T03:22:43.422Z,23.90
2022-12-08T03:25:58.185Z,24.83
2022-12-08T03:29:05.277Z,27.90
2022-12-08T03:32:20.577Z,37.73
2022-12-08T03:35:31.570Z,33.27
2022-12-08T03:38:44.523Z,27.27
2022-12-08T03:41:50.476Z,21.77
2022-12-08T03:44:56.897Z,21.07
2022-12-08T03:48:02.790Z,19.53
2022-12-08T03:51:09.125Z,28.80
2022-12-08T03:54:16.717Z,24.57
2022-12-08T03:57:23.057Z,29.60
2022-12-08T04:00:29.150Z,24.97
2022-12-08T04:03:35.166Z,22.80
2022-12-08T04:06:41.624Z,48.77
2022-12-08T04:09:49.295Z,17.33
2022-12-08T04:12:55.715Z,60.97
2022-12-08T04:16:02.324Z,56.00
2022-12-08T04:19:08.370Z,39.97
2022-12-08T04:22:14.466Z,58.57
2022-12-08T04:25:21.730Z,56.73
2022-12-08T04:28:29.556Z,42.27
2022-12-08T04:31:35.506Z,28.27
2022-12-08T04:34:41.820Z,21.13
2022-12-08T04:37:47.831Z,25.63
2022-12-08T04:40:55.472Z,24.20
2022-12-08T04:44:01.862Z,27.00
2022-12-08T04:47:08.261Z,18.60
2022-12-08T04:50:14.585Z,25.70
2022-12-08T04:53:21.495Z,29.93
2022-12-08T04:56:29.193Z,31.47
2022-12-08T04:59:35.512Z,16.73
2022-12-08T05:02:42.073Z,28.77
2022-12-08T05:05:48.702Z,34.30
2022-12-08T05:08:54.656Z,27.57
2022-12-08T05:12:02.076Z,30.80
2022-12-08T05:15:09.330Z,28.13
2022-12-08T05:18:15.819Z,23.87
2022-12-08T05:21:21.982Z,23.47
2022-12-08T05:24:28.238Z,21.43
2022-12-08T05:27:35.663Z,22.30
2022-12-08T05:30:42.026Z,37.93
2022-12-08T05:33:50.155Z,26.97
2022-12-08T05:36:56.383Z,31.00
2022-12-08T05:40:02.585Z,21.60
2022-12-08T05:43:11.003Z,21.00
2022-12-08T05:46:18.480Z,20.90
2022-12-08T05:49:25.067Z,20.60
2022-12-08T05:52:31.040Z,23.17
2022-12-08T05:55:37.076Z,27.27
2022-12-08T05:58:45.643Z,33.80
2022-12-08T06:01:51.864Z,45.07
2022-12-08T06:04:58.334Z,44.67
2022-12-08T06:08:04.492Z,41.50
2022-12-08T06:11:11.276Z,45.23
2022-12-08T06:14:18.680Z,42.67
2022-12-08T06:17:24.697Z,42.97
2022-12-08T06:20:31.039Z,51.80
2022-12-08T06:23:37.383Z,59.43
2022-12-08T06:26:43.532Z,36.60
2022-12-08T06:29:51.007Z,32.43
2022-12-08T06:32:57.197Z,26.83
2022-12-08T06:36:03.108Z,38.87
2022-12-08T06:39:10.301Z,28.97
2022-12-08T06:42:34.441Z,31.63
2022-12-08T06:45:42.483Z,33.67
2022-12-08T06:48:50.655Z,25.60
2022-12-08T06:51:56.755Z,21.87
2022-12-08T06:55:03.056Z,13.53
2022-12-08T06:58:09.362Z,32.70
2022-12-08T07:01:16.855Z,27.43
2022-12-08T07:04:23.210Z,23.37
2022-12-08T07:07:29.245Z,21.40
2022-12-08T07:10:35.910Z,32.63
2022-12-08T07:13:42.376Z,45.43
2022-12-08T07:16:50.100Z,55.73
2022-12-08T07:19:56.301Z,44.30
2022-12-08T07:23:02.487Z,63.70
2022-12-08T07:26:11.628Z,50.17
2022-12-08T07:29:23.006Z,50.27
2022-12-08T07:32:33.560Z,58.47
2022-12-08T07:35:39.612Z,66.43
2022-12-08T07:38:45.566Z,54.73
2022-12-08T07:41:51.513Z,51.00
2022-12-08T07:44:57.829Z,34.97
2022-12-08T07:48:05.474Z,46.03
2022-12-08T07:51:14.058Z,50.77
2022-12-08T07:54:20.261Z,43.07
2022-12-08T07:57:26.405Z,30.63
2022-12-08T08:00:32.436Z,36.50
2022-12-08T08:03:40.433Z,57.63
2022-12-08T08:06:46.694Z,42.30
2022-12-08T08:09:52.792Z,35.37
2022-12-08T08:13:00.436Z,36.77
2022-12-08T08:16:07.574Z,38.30
2022-12-08T08:19:15.297Z,33.67
2022-12-08T08:22:21.775Z,44.50
2022-12-08T08:25:28.349Z,56.37
2022-12-08T08:28:34.775Z,33.87
2022-12-08T08:31:41.361Z,25.57
2022-12-08T08:34:49.400Z,17.37
2022-12-08T08:37:55.682Z,15.87
2022-12-08T08:41:03.081Z,26.13
2022-12-08T08:44:09.517Z,13.17
2022-12-08T08:47:15.906Z,18.63
2022-12-08T08:50:23.935Z,28.03
2022-12-08T08:53:30.090Z,21.50
2022-12-08T08:56:36.752Z,22.10
2022-12-08T08:59:42.830Z,19.93
2022-12-08T09:02:49.157Z,15.47
2022-12-08T09:05:58.235Z,12.10
2022-12-08T09:09:05.110Z,16.43
2022-12-08T09:12:11.972Z,17.53
2022-12-08T09:15:20.618Z,15.13
2022-12-08T09:18:27.113Z,13.70
2022-12-08T09:21:35.156Z,20.57
2022-12-08T09:24:41.695Z,14.50
2022-12-08T09:27:47.801Z,17.37
2022-12-08T09:30:54.157Z,19.13
2022-12-08T09:34:00.579Z,30.03
2022-12-08T09:37:08.485Z,21.97
2022-12-08T09:40:19.818Z,51.27
2022-12-08T09:43:47.641Z,36.33
2022-12-08T09:46:54.519Z,33.10
2022-12-08T09:50:07.541Z,39.23
2022-12-08T09:53:19.896Z,55.07
2022-12-08T09:56:30.095Z,35.57
2022-12-08T09:59:37.272Z,40.70
2022-12-08T10:02:46.940Z,40.83
2022-12-08T10:06:08.976Z,30.03
2022-12-08T10:09:32.428Z,34.00
2022-12-08T10:12:44.647Z,32.90
2022-12-08T10:15:59.341Z,32.67
2022-12-08T10:19:14.972Z,31.20
2022-12-08T10:22:23.381Z,32.77
2022-12-08T10:25:37.231Z,42.50
2022-12-08T10:28:45.493Z,39.70
2022-12-08T10:31:52.263Z,55.03
2022-12-08T10:35:06.068Z,39.37
2022-12-08T10:38:19.963Z,47.97
2022-12-08T10:41:27.762Z,49.37
2022-12-08T10:44:34.242Z,42.03
2022-12-08T10:47:45.031Z,62.73
2022-12-08T10:50:56.082Z,51.93
2022-12-08T10:54:03.379Z,61.17
2022-12-08T10:57:22.019Z,80.00
2022-12-08T11:00:29.597Z,65.43
2022-12-08T11:03:46.340Z,26.80
2022-12-08T11:06:54.137Z,17.73
2022-12-08T11:10:01.288Z,21.30
2022-12-08T11:13:24.690Z,41.30
2022-12-08T11:16:30.976Z,18.57
2022-12-08T11:19:39.973Z,32.43
2022-12-08T11:22:48.287Z,19.77
2022-12-08T11:25:58.970Z,49.90
2022-12-08T11:29:06.860Z,70.73
2022-12-08T11:32:15.067Z,51.43
2022-12-08T11:35:26.779Z,23.33
2022-12-08T11:38:35.451Z,22.83
2022-12-08T11:41:46.069Z,34.83
2022-12-08T11:44:58.645Z,76.63
2022-12-08T11:48:15.826Z,64.50
2022-12-08T11:51:29.992Z,43.37
2022-12-08T11:54:40.576Z,43.13
2022-12-08T11:57:47.182Z,31.53
2022-12-08T12:00:55.266Z,34.53
2022-12-08T12:04:12.533Z,53.07
2022-12-08T12:07:55.811Z,45.57
2022-12-08T12:11:34.231Z,30.33
2022-12-08T12:14:55.452Z,28.50
2022-12-08T12:18:08.084Z,16.73
2022-12-08T12:21:22.288Z,20.93
2022-12-08T12:24:35.980Z,24.57
2022-12-08T12:27:43.858Z,17.73
2022-12-08T12:31:00.539Z,27.03
2022-12-08T12:34:12.909Z,26.90
2022-12-08T12:37:23.361Z,10.10
2022-12-08T12:40:35.643Z,12.70
2022-12-08T12:44:02.295Z,58.67
2022-12-08T12:47:15.269Z,30.10
2022-12-08T12:50:44.562Z,24.13
2022-12-08T12:53:52.149Z,22.33
2022-12-08T12:57:17.001Z,40.27
2022-12-08T13:00:25.627Z,33.70
2022-12-08T13:03:32.082Z,17.73
2022-12-08T13:06:43.488Z,26.20
2022-12-08T13:09:58.920Z,18.53
2022-12-08T13:13:19.266Z,25.37
2022-12-08T13:16:28.090Z,23.00
2022-12-08T13:19:37.349Z,12.00
2022-12-08T13:23:15.188Z,11.20
2022-12-08T13:26:23.795Z,12.67
2022-12-08T13:29:30.451Z,8.80
2022-12-08T13:33:22.821Z,9.23
2022-12-08T13:36:27.700Z,14.33
2022-12-08T13:39:42.587Z,9.80
2022-12-08T13:42:58.945Z,14.33
2022-12-08T13:57:06.797Z,37.00
2022-12-08T14:00:18.146Z,27.10
2022-12-08T14:03:24.231Z,17.77
2022-12-08T14:06:37.751Z,16.77
2022-12-08T14:09:44.366Z,25.10
2022-12-08T14:12:56.812Z,22.63
2022-12-08T14:16:03.058Z,29.90
2022-12-08T14:19:19.416Z,14.50
2022-12-08T14:22:26.092Z,28.13
2022-12-08T14:25:32.617Z,23.10
2022-12-08T14:28:44.774Z,17.57
2022-12-08T14:31:51.673Z,9.27
2022-12-08T14:35:01.083Z,17.67
2022-12-08T14:38:13.853Z,135.10
2022-12-08T14:41:28.185Z,70.30
2022-12-08T14:44:41.221Z,67.73
2022-12-08T14:47:48.641Z,56.90
2022-12-08T14:51:02.981Z,57.93
2022-12-08T14:54:11.588Z,46.03
2022-12-08T14:57:18.130Z,57.00
2022-12-08T15:00:26.931Z,66.73
2022-12-08T15:03:33.711Z,110.90
2022-12-08T15:06:48.825Z,108.67
2022-12-08T15:10:11.680Z,110.20
2022-12-08T15:13:24.576Z,94.07
2022-12-08T15:16:40.777Z,95.40
2022-12-08T15:19:57.682Z,63.47
2022-12-08T15:23:04.287Z,70.10
2022-12-08T15:26:19.785Z,65.70
2022-12-08T15:29:28.570Z,83.80
2022-12-08T15:32:36.099Z,75.70
2022-12-08T15:35:42.504Z,76.27
2022-12-08T15:38:49.110Z,77.03
2022-12-08T15:41:55.504Z,68.57
2022-12-08T15:45:01.575Z,74.00
2022-12-08T15:48:14.895Z,63.70
2022-12-08T15:51:21.044Z,86.30
2022-12-08T15:54:27.092Z,53.93
2022-12-08T15:58:17.437Z,63.13
2022-12-08T16:01:01.153Z,83.53
2022-12-08T16:04:37.260Z,108.53
2022-12-08T16:07:38.291Z,164.17
2022-12-08T16:11:24.151Z,199.93
2022-12-08T16:15:01.430Z,135.47
2022-12-08T16:17:37.618Z,96.47
2022-12-08T16:24:11.986Z,79.80
2022-12-08T16:27:59.436Z,51.57
2022-12-08T16:30:49.574Z,42.17
2022-12-08T16:33:55.751Z,35.67
2022-12-08T16:37:03.597Z,33.97
2022-12-08T16:40:11.670Z,49.33
2022-12-08T16:43:17.057Z,39.03
2022-12-08T16:46:27.586Z,39.63
2022-12-08T16:49:34.026Z,33.27
2022-12-08T16:52:41.578Z,32.67
2022-12-08T16:55:48.425Z,29.60
2022-12-08T16:58:54.294Z,32.30
2022-12-08T17:02:00.293Z,37.10
2022-12-08T17:05:06.965Z,27.93
2022-12-08T17:08:14.739Z,41.23
2022-12-08T17:11:26.573Z,56.07
2022-12-08T17:14:35.183Z,41.03
2022-12-08T17:17:41.388Z,48.40
2022-12-08T17:20:47.889Z,25.97
2022-12-08T17:23:55.993Z,42.77
2022-12-08T17:27:04.297Z,46.63
2022-12-08T17:30:15.656Z,38.30
2022-12-08T17:33:26.755Z,39.93
2022-12-08T17:36:33.541Z,31.33
2022-12-08T17:39:41.758Z,47.90
2022-12-08T17:42:48.106Z,71.07
2022-12-08T17:45:56.264Z,40.90
2022-12-08T17:49:02.771Z,50.60
2022-12-08T17:52:09.226Z,68.20
2022-12-08T17:55:17.125Z,69.73
2022-12-08T17:58:24.802Z,62.57
2022-12-08T18:01:34.489Z,52.87
2022-12-08T18:04:41.416Z,49.93
2022-12-08T18:07:48.127Z,63.33
2022-12-08T18:10:56.185Z,62.77
2022-12-08T18:14:09.413Z,51.63
2022-12-08T18:17:15.548Z,77.77
2022-12-08T18:20:21.782Z,52.23
2022-12-08T18:23:28.342Z,56.40
2022-12-08T18:26:36.154Z,58.20
2022-12-08T18:29:42.719Z,87.90
2022-12-08T18:32:52.883Z,79.50
2022-12-08T18:36:02.298Z,97.70
2022-12-08T18:39:10.885Z,99.60
2022-12-08T18:42:25.291Z,96.23
2022-12-08T18:45:31.536Z,139.07
2022-12-08T18:48:37.927Z,100.97
2022-12-08T18:51:44.090Z,67.63
2022-12-08T18:55:05.709Z,84.33
2022-12-08T18:58:14.632Z,68.27
2022-12-08T19:01:21.315Z,63.07
2022-12-08T19:04:29.065Z,60.13
2022-12-08T19:07:36.304Z,56.40
2022-12-08T19:10:42.416Z,57.53
2022-12-08T19:13:50.226Z,58.43
2022-12-08T19:16:56.624Z,97.37
2022-12-08T19:20:03.928Z,86.20
2022-12-08T19:23:10.410Z,71.30
2022-12-08T19:26:17.143Z,71.03
2022-12-08T19:29:24.853Z,75.17
2022-12-08T19:32:31.258Z,66.10
2022-12-08T19:35:38.017Z,71.23
2022-12-08T19:39:01.669Z,97.60
2022-12-08T19:42:32.432Z,94.80
2022-12-08T19:45:39.967Z,76.83
2022-12-08T19:48:46.436Z,53.03
2022-12-08T19:51:52.747Z,53.07
2022-12-08T19:54:58.821Z,90.97
2022-12-08T19:58:05.496Z,54.87
2022-12-08T20:01:13.225Z,45.60
2022-12-08T20:04:20.385Z,53.97
2022-12-08T20:07:26.410Z,50.93
2022-12-08T20:10:35.753Z,64.93
2022-12-08T20:13:41.985Z,45.30
2022-12-08T20:16:50.760Z,57.87
2022-12-08T20:19:57.129Z,51.40
2022-12-08T20:23:03.540Z,46.20
2022-12-08T20:26:12.857Z,53.07
2022-12-08T20:32:44.406Z,42.57
2022-12-08T20:35:59.678Z,48.70
2022-12-08T20:39:06.170Z,40.30
2022-12-08T20:42:13.951Z,40.50
2022-12-08T20:45:20.468Z,42.47
2022-12-08T20:48:28.355Z,44.93
2022-12-08T20:51:35.515Z,73.10
2022-12-08T20:54:41.929Z,95.50
2022-12-08T20:57:48.303Z,113.00
2022-12-08T21:00:54.753Z,74.20
2022-12-08T21:04:02.679Z,81.83
2022-12-08T21:07:09.550Z,74.43
2022-12-08T21:10:16.195Z,73.73
2022-12-08T21:13:22.410Z,70.40
2022-12-08T21:16:28.760Z,67.70
2022-12-08T21:19:36.875Z,60.73
2022-12-08T21:22:42.953Z,59.53
2022-12-08T21:25:49.400Z,117.00
2022-12-08T21:28:55.985Z,85.13
2022-12-08T21:32:02.418Z,50.53
2022-12-08T21:35:11.464Z,80.57
2022-12-08T21:38:17.804Z,61.83
2022-12-08T21:41:39.368Z,50.93
2022-12-08T21:44:45.610Z,72.37
2022-12-08T21:47:52.203Z,88.93
2022-12-08T21:51:05.385Z,72.33
2022-12-08T21:54:18.221Z,62.80
2022-12-08T21:57:25.401Z,89.27
2022-12-08T22:00:31.798Z,49.53
2022-12-08T22:03:38.509Z,28.57
2022-12-08T22:06:45.983Z,37.10
2022-12-08T22:09:52.127Z,31.00
2022-12-08T22:12:58.238Z,34.80
2022-12-08T22:16:07.595Z,119.73
2022-12-08T22:19:13.683Z,43.73
2022-12-08T22:22:21.912Z,47.70
2022-12-08T22:25:28.048Z,39.20
2022-12-08T22:28:37.396Z,44.90
2022-12-08T22:31:44.679Z,39.53
2022-12-08T22:34:50.530Z,48.47
2022-12-08T22:37:57.978Z,52.37
2022-12-08T22:41:05.798Z,60.43
2022-12-08T22:44:14.018Z,39.47
2022-12-08T22:47:20.129Z,39.87
2022-12-08T22:50:26.468Z,37.37
2022-12-08T22:53:34.245Z,36.40
2022-12-08T22:56:40.654Z,60.20
2022-12-08T22:59:46.926Z,44.57
2022-12-08T23:02:52.832Z,41.23
2022-12-08T23:05:59.417Z,33.63
2022-12-08T23:09:08.600Z,53.17
2022-12-08T23:12:14.937Z,47.97
2022-12-08T23:15:21.276Z,60.53
2022-12-08T23:18:27.720Z,59.40
2022-12-08T23:21:33.817Z,32.23
2022-12-08T23:24:41.726Z,22.47
2022-12-08T23:27:48.964Z,19.70
2022-12-08T23:30:54.878Z,20.43
2022-12-08T23:34:01.246Z,14.37
2022-12-08T23:37:07.192Z,14.20
2022-12-08T23:40:15.185Z,16.63
2022-12-08T23:43:21.600Z,16.30
2022-12-08T23:46:27.580Z,14.47
2022-12-08T23:49:34.085Z,15.93
2022-12-08T23:52:40.213Z,18.70
2022-12-08T23:55:47.913Z,21.80
2022-12-08T23:58:54.057Z,17.27
